ROMMA est une association bénévole à but non lucratif. Votre soutien est indispensable : ADHERER à ROMMA ou FAIRE un DON

Montélimar - (26, Drôme)

Basse vallée du Rhône (88 m)   Longitude: 04° 45' E   Latitude: 44° 32' N Station partenaire n°164
 

Détail journalier du     <<     >>

Température Precipitation Humidité Pression Vent Dir Rafale Dir. rafale Ensol.
Heure (°C) (mm) (%) (hPa) (km/h) (km/h) (min)
01:00 14.908610162---18NNO0
02:00 15.008610156NNO21NNO0
03:00 15.008610155---23NNO0
04:00 14.60861015013NNO0
05:00 14.6085101600---0
06:00 13.8085101600---0
07:00 14.108610161---18NNO0
08:00 14.508510163NNO18NNO0
09:00 14.808510162NNO13NNO42
10:00 17.107910163---16NNO60
11:00 18.5075101610N29NNO60
12:00 19.6068101612N35NO60
13:00 20.3062101619N45NE57
14:00 20.9059101618N44N46
15:00 21.4054101519N39NNO27
16:00 21.6053101518N39NNO11
17:00 21.8050101518N37NNO32
18:00 21.0054101512N29NNO0
19:00 21.305210157N23N0
20:00 19.606010164---18NNO0
21:00 18.5065101600---0
22:00 17.9066101600---0
23:00 16.80711016011NNO0
minuit 16.6070101600---0

Graphique du 23-09-2019

 

Serveur OMMA